Manchester, Kansas
Current Conditions -  °F | °C
As of 1:58 PM on Thursday 18 Dec 2014 (Local Time) from KFRI Reporting Station
Overcast Overcast  
Wind Chill: 33°   Ceiling: 1100
Heat Index: 33°   Visibility: 10mi
Dew Point: 31°   Wind: 1mph
Humidity: 95%   Direction: 110°ESE
Pressure: 30.19"   Gusts: NA
Location:  39.0421°N, 97.1702°W
Report Text: KFRI 181958Z AUTO 11001KT 10SM OVC011 00/00 A3019 RMK AO2 SLP233 P0001 T00031004
Loading
Personal Weather Stations






























Interactive Weather Map New forecast layout! Learn more

10-Day Weather Forecast

Advertisements
Track Severe Weather on mobile